Time;durP1;ratioP1;P1;durP2;ratioP2;P2;SDS_P1;SDS_P2;PMS_P1;PMS_P2;Temp;Humidity;BMP_temperature;BMP_pressure;BME280_temperature;BME280_humidity;BME280_pressure;Samples;Min_cycle;Max_cycle;Signal;HPM_P1;HPM_P2
2021/03/05 00:00:11;;;;;;;9.63;2.75;;;;;;;;;;5113963;28;20039;-56
2021/03/05 00:02:38;;;;;;;5.85;2.65;;;;;;;;;;5095410;28;20466;-56
2021/03/05 00:05:06;;;;;;;10.37;5.93;;;;;;;;;;5113364;28;20377;-56
2021/03/05 00:07:33;;;;;;;9.50;4.70;;;;;;;;;;5113576;28;20095;-56
2021/03/05 00:10:00;;;;;;;6.37;3.20;;;;;;;;;;5113785;28;20031;-56
2021/03/05 00:12:26;;;;;;;4.87;3.43;;;;;;;;;;5113616;28;20059;-56
2021/03/05 00:14:53;;;;;;;7.43;3.53;;;;;;;;;;5113751;28;20069;-56
2021/03/05 00:28:59;;;;;;;5.78;2.60;;;;;;;;;;4782104;27;9287647;-56
2021/03/05 00:31:26;;;;;;;5.43;2.27;;;;;;;;;;5110407;28;20028;-57
2021/03/05 00:33:53;;;;;;;5.77;2.47;;;;;;;;;;5110412;28;20054;-55
2021/03/05 00:36:20;;;;;;;9.20;2.73;;;;;;;;;;5110289;28;20028;-55
2021/03/05 00:38:46;;;;;;;8.07;2.83;;;;;;;;;;5110267;28;20035;-56
2021/03/05 00:41:13;;;;;;;5.57;2.33;;;;;;;;;;5110462;28;20020;-56
2021/03/05 00:43:40;;;;;;;13.67;2.97;;;;;;;;;;5110166;28;20026;-55
2021/03/05 00:46:07;;;;;;;8.50;2.90;;;;;;;;;;5110308;28;20020;-55
2021/03/05 00:48:33;;;;;;;10.43;2.70;;;;;;;;;;5110095;28;20073;-55
2021/03/05 00:51:00;;;;;;;7.37;3.10;;;;;;;;;;5110079;28;20070;-55
2021/03/05 00:53:27;;;;;;;8.73;2.87;;;;;;;;;;5110129;28;20028;-55
2021/03/05 00:55:55;;;;;;;6.40;2.20;;;;;;;;;;5109980;28;20027;-55
2021/03/05 00:58:22;;;;;;;5.10;2.93;;;;;;;;;;5109979;28;20099;-55
2021/03/05 01:00:49;;;;;;;5.90;3.17;;;;;;;;;;5109886;28;20351;-55
2021/03/05 01:03:16;;;;;;;5.10;2.27;;;;;;;;;;5109824;28;20176;-55
2021/03/05 01:05:43;;;;;;;7.67;2.80;;;;;;;;;;5109928;28;20024;-55
2021/03/05 01:08:09;;;;;;;6.30;2.60;;;;;;;;;;5109373;28;20024;-55
2021/03/05 01:10:37;;;;;;;4.77;2.37;;;;;;;;;;5109854;28;20031;-55
2021/03/05 01:13:04;;;;;;;7.17;3.00;;;;;;;;;;5109721;28;20028;-55
2021/03/05 01:15:31;;;;;;;4.73;2.87;;;;;;;;;;5109712;28;20028;-55
2021/03/05 01:17:57;;;;;;;5.47;2.90;;;;;;;;;;5109326;28;20035;-55
2021/03/05 01:20:26;;;;;;;7.57;2.93;;;;;;;;;;5109560;28;20116;-55
2021/03/05 01:22:52;;;;;;;6.97;3.00;;;;;;;;;;5109444;28;20024;-55
2021/03/05 01:25:20;;;;;;;12.13;2.77;;;;;;;;;;5109319;28;20024;-55
2021/03/05 01:27:47;;;;;;;8.97;3.20;;;;;;;;;;5110167;27;20055;-55
2021/03/05 01:30:14;;;;;;;12.00;3.90;;;;;;;;;;5095967;28;20035;-55
2021/03/05 01:32:41;;;;;;;13.63;3.70;;;;;;;;;;5095739;28;20051;-55
2021/03/05 01:35:09;;;;;;;10.50;3.40;;;;;;;;;;5095646;28;20032;-55
2021/03/05 01:37:36;;;;;;;15.90;3.27;;;;;;;;;;5095662;28;20467;-55
2021/03/05 01:40:04;;;;;;;6.20;3.30;;;;;;;;;;5095675;28;20024;-56
2021/03/05 01:42:31;;;;;;;6.80;3.37;;;;;;;;;;5095471;28;20028;-55
2021/03/05 01:44:57;;;;;;;6.37;3.10;;;;;;;;;;5095413;28;20056;-55
2021/03/05 01:47:24;;;;;;;8.53;3.10;;;;;;;;;;5095580;28;20389;-56
2021/03/05 01:49:51;;;;;;;8.50;3.10;;;;;;;;;;5095433;28;20024;-55
2021/03/05 01:52:18;;;;;;;7.53;2.80;;;;;;;;;;5095516;28;20474;-55
2021/03/05 01:54:45;;;;;;;6.83;3.10;;;;;;;;;;5095298;28;20032;-56
2021/03/05 01:57:11;;;;;;;6.33;3.47;;;;;;;;;;5095201;28;20036;-55
2021/03/05 01:59:38;;;;;;;5.63;3.00;;;;;;;;;;5095284;28;20024;-55
2021/03/05 02:02:06;;;;;;;7.77;3.03;;;;;;;;;;5077078;28;20032;-55
2021/03/05 02:04:37;;;;;;;11.30;3.40;;;;;;;;;;5095195;28;20123;-55
2021/03/05 02:07:07;;;;;;;7.03;3.30;;;;;;;;;;5077282;28;20055;-55
2021/03/05 02:09:35;;;;;;;5.33;3.10;;;;;;;;;;5095029;28;20384;-55
2021/03/05 02:12:03;;;;;;;5.73;2.40;;;;;;;;;;5095174;28;20031;-55
2021/03/05 02:14:30;;;;;;;6.13;2.90;;;;;;;;;;5095060;28;20047;-55
2021/03/05 02:17:07;;;;;;;5.57;3.27;;;;;;;;;;5094996;28;20067;-55
2021/03/05 02:19:53;;;;;;;7.47;3.23;;;;;;;;;;5094853;28;20444;-55
2021/03/05 02:22:38;;;;;;;5.40;2.77;;;;;;;;;;5094951;28;20048;-56
2021/03/05 02:25:23;;;;;;;4.15;2.65;;;;;;;;;;5094937;28;20123;-55
2021/03/05 02:28:09;;;;;;;7.43;2.90;;;;;;;;;;5095144;28;20445;-55
2021/03/05 02:30:36;;;;;;;4.87;2.87;;;;;;;;;;5094736;28;20020;-55
2021/03/05 02:33:18;;;;;;;7.27;3.67;;;;;;;;;;5094649;28;20028;-55
2021/03/05 02:35:46;;;;;;;4.87;3.07;;;;;;;;;;5094731;28;20047;-55
2021/03/05 02:38:13;;;;;;;7.17;2.97;;;;;;;;;;5094471;28;20024;-56
2021/03/05 02:40:44;;;;;;;5.43;3.00;;;;;;;;;;5093446;28;20378;-55
2021/03/05 02:43:12;;;;;;;4.73;3.00;;;;;;;;;;5094483;28;20028;-56
2021/03/05 02:45:41;;;;;;;4.93;3.10;;;;;;;;;;5094304;28;20027;-55
2021/03/05 02:48:08;;;;;;;8.77;3.63;;;;;;;;;;5094336;28;20530;-55
2021/03/05 02:50:35;;;;;;;6.80;3.67;;;;;;;;;;5094545;28;20138;-55
2021/03/05 02:53:04;;;;;;;19.40;4.87;;;;;;;;;;5094284;28;20078;-55
2021/03/05 02:55:32;;;;;;;8.00;2.90;;;;;;;;;;5094225;28;20050;-55
2021/03/05 02:58:00;;;;;;;6.90;2.53;;;;;;;;;;5093995;28;20043;-55
2021/03/05 03:00:27;;;;;;;7.03;3.10;;;;;;;;;;5094154;28;20020;-55
2021/03/05 03:02:54;;;;;;;6.40;3.03;;;;;;;;;;5094155;28;20020;-55
2021/03/05 03:05:21;;;;;;;5.27;3.17;;;;;;;;;;5094000;28;20023;-55
2021/03/05 03:07:49;;;;;;;10.50;2.73;;;;;;;;;;5093869;28;20466;-55
2021/03/05 03:10:17;;;;;;;4.00;2.57;;;;;;;;;;5093983;28;20035;-55
2021/03/05 03:12:44;;;;;;;3.93;2.20;;;;;;;;;;5094070;28;20519;-55
2021/03/05 03:15:12;;;;;;;5.63;3.20;;;;;;;;;;5093911;28;20020;-55
2021/03/05 03:17:48;;;;;;;5.40;3.07;;;;;;;;;;5093973;28;20451;-55
2021/03/05 03:20:16;;;;;;;6.27;3.43;;;;;;;;;;5093549;28;20078;-55
2021/03/05 03:22:43;;;;;;;5.83;3.00;;;;;;;;;;5093855;28;20099;-55
2021/03/05 03:25:10;;;;;;;13.40;3.10;;;;;;;;;;5093653;28;20024;-55
2021/03/05 03:27:37;;;;;;;7.17;3.10;;;;;;;;;;5094515;27;20117;-55
2021/03/05 03:30:11;;;;;;;6.70;3.27;;;;;;;;;;5093707;28;20020;-55
2021/03/05 03:32:39;;;;;;;7.80;3.00;;;;;;;;;;5093612;28;20028;-55
2021/03/05 03:35:07;;;;;;;6.80;3.60;;;;;;;;;;5093553;28;20168;-55
2021/03/05 03:37:34;;;;;;;7.23;2.93;;;;;;;;;;5093395;28;20032;-55
2021/03/05 03:40:02;;;;;;;12.60;3.13;;;;;;;;;;5093536;28;20070;-55
2021/03/05 03:42:30;;;;;;;15.37;3.07;;;;;;;;;;5093248;28;20059;-55
2021/03/05 03:44:57;;;;;;;18.40;3.83;;;;;;;;;;5093218;28;20390;-55
2021/03/05 03:47:24;;;;;;;9.00;3.40;;;;;;;;;;5093293;28;20020;-55
2021/03/05 03:49:53;;;;;;;10.33;3.10;;;;;;;;;;5093235;28;20020;-55
2021/03/05 03:52:38;;;;;;;6.13;3.00;;;;;;;;;;5093093;28;20020;-55
2021/03/05 03:55:06;;;;;;;5.20;2.92;;;;;;;;;;5093308;28;20222;-55
2021/03/05 03:57:34;;;;;;;5.23;3.20;;;;;;;;;;5093271;28;20436;-55
2021/03/05 04:00:03;;;;;;;7.60;3.07;;;;;;;;;;5093118;28;20055;-55
2021/03/05 04:02:31;;;;;;;8.43;3.47;;;;;;;;;;5093182;28;20198;-55
2021/03/05 04:05:00;;;;;;;6.87;2.77;;;;;;;;;;5093120;28;20541;-55
2021/03/05 04:07:32;;;;;;;5.70;2.70;;;;;;;;;;5093032;28;20024;-55
2021/03/05 04:10:03;;;;;;;4.20;2.70;;;;;;;;;;5092866;28;20012;-54
2021/03/05 04:12:31;;;;;;;9.03;2.90;;;;;;;;;;5092947;28;20051;-55
2021/03/05 04:14:58;;;;;;;5.37;3.33;;;;;;;;;;5092968;28;20027;-55
2021/03/05 04:17:27;;;;;;;8.23;2.90;;;;;;;;;;5092746;28;20389;-55
2021/03/05 04:19:54;;;;;;;6.47;2.93;;;;;;;;;;5092961;28;20494;-55
2021/03/05 04:22:22;;;;;;;7.37;2.70;;;;;;;;;;5092966;28;20020;-55
2021/03/05 04:24:49;;;;;;;6.67;2.90;;;;;;;;;;5092925;28;20100;-55
2021/03/05 04:27:16;;;;;;;4.80;2.37;;;;;;;;;;5093612;27;20036;-55
2021/03/05 04:29:43;;;;;;;7.90;3.83;;;;;;;;;;5092838;28;20028;-55
2021/03/05 04:32:10;;;;;;;8.47;3.03;;;;;;;;;;5093133;28;20076;-55
2021/03/05 04:34:36;;;;;;;8.30;3.30;;;;;;;;;;5092606;28;20017;-56
2021/03/05 04:37:03;;;;;;;5.57;2.90;;;;;;;;;;5092404;28;20043;-55
2021/03/05 04:39:30;;;;;;;6.00;3.40;;;;;;;;;;5092745;28;20024;-56
2021/03/05 04:41:57;;;;;;;6.63;3.00;;;;;;;;;;5092809;28;20059;-55
2021/03/05 04:44:24;;;;;;;7.47;2.97;;;;;;;;;;5092610;28;20100;-55
2021/03/05 04:46:50;;;;;;;7.17;2.93;;;;;;;;;;5074568;28;20139;-55
2021/03/05 04:49:17;;;;;;;7.43;2.50;;;;;;;;;;5092639;28;20032;-55
2021/03/05 04:51:50;;;;;;;5.00;2.93;;;;;;;;;;5092613;28;20031;-55
2021/03/05 04:54:17;;;;;;;11.23;2.70;;;;;;;;;;5092586;28;20103;-56
2021/03/05 04:56:44;;;;;;;8.83;2.87;;;;;;;;;;5074384;28;20490;-55
2021/03/05 04:59:11;;;;;;;5.40;2.43;;;;;;;;;;5092561;28;20382;-55
2021/03/05 05:01:38;;;;;;;5.63;2.67;;;;;;;;;;5092486;28;20397;-55
2021/03/05 05:04:04;;;;;;;5.37;2.73;;;;;;;;;;5094488;28;20032;-55
2021/03/05 05:06:31;;;;;;;8.67;3.47;;;;;;;;;;5096452;28;20028;-55
2021/03/05 05:08:58;;;;;;;6.83;2.57;;;;;;;;;;5096255;28;20031;-54
2021/03/05 05:11:25;;;;;;;6.23;3.03;;;;;;;;;;5096208;28;20115;-54
2021/03/05 05:13:52;;;;;;;5.37;3.13;;;;;;;;;;5096144;28;20031;-54
2021/03/05 05:16:18;;;;;;;4.47;2.90;;;;;;;;;;5096366;28;20073;-54
2021/03/05 05:18:45;;;;;;;4.77;3.07;;;;;;;;;;5096053;28;20028;-55
2021/03/05 05:21:12;;;;;;;6.83;2.70;;;;;;;;;;5095910;28;20028;-54
2021/03/05 05:23:39;;;;;;;4.83;2.93;;;;;;;;;;5096051;28;20024;-54
2021/03/05 05:26:05;;;;;;;8.87;2.70;;;;;;;;;;5095898;28;20641;-54
2021/03/05 05:28:32;;;;;;;7.67;2.73;;;;;;;;;;5096843;27;20058;-54
2021/03/05 05:30:59;;;;;;;5.00;2.90;;;;;;;;;;5095787;28;20429;-54
2021/03/05 05:33:26;;;;;;;6.90;3.03;;;;;;;;;;5095876;28;20085;-54
2021/03/05 05:35:52;;;;;;;5.60;3.00;;;;;;;;;;5095732;28;20024;-54
2021/03/05 05:38:19;;;;;;;4.27;2.53;;;;;;;;;;5095646;28;20063;-54
2021/03/05 05:40:46;;;;;;;6.47;3.40;;;;;;;;;;5095607;28;20035;-54
2021/03/05 05:43:13;;;;;;;6.27;2.33;;;;;;;;;;5095702;28;20024;-54
2021/03/05 05:45:40;;;;;;;4.47;2.97;;;;;;;;;;5095570;28;20444;-54
2021/03/05 05:48:12;;;;;;;4.80;3.03;;;;;;;;;;5095488;28;20425;-54
2021/03/05 05:50:39;;;;;;;4.73;2.50;;;;;;;;;;5095488;28;20545;-54
2021/03/05 05:53:07;;;;;;;5.40;2.80;;;;;;;;;;5095435;28;20058;-54
2021/03/05 05:55:34;;;;;;;6.57;3.60;;;;;;;;;;5095373;28;20123;-54
2021/03/05 05:58:01;;;;;;;4.20;2.33;;;;;;;;;;5095125;28;20474;-54
2021/03/05 06:00:28;;;;;;;6.00;2.87;;;;;;;;;;5095424;28;20019;-54
2021/03/05 06:02:55;;;;;;;7.17;2.97;;;;;;;;;;5095220;28;20039;-54
2021/03/05 06:05:22;;;;;;;4.77;3.00;;;;;;;;;;5095126;28;20024;-54
2021/03/05 06:07:49;;;;;;;4.30;2.80;;;;;;;;;;5095197;28;20543;-54
2021/03/05 06:10:16;;;;;;;6.47;3.17;;;;;;;;;;5095128;28;20567;-54
2021/03/05 06:12:43;;;;;;;6.40;2.80;;;;;;;;;;5095100;28;20039;-54
2021/03/05 06:15:10;;;;;;;4.03;2.30;;;;;;;;;;5094971;28;20020;-54
2021/03/05 06:17:44;;;;;;;4.67;2.60;;;;;;;;;;5094931;28;20024;-54
2021/03/05 06:20:11;;;;;;;4.10;2.37;;;;;;;;;;5094966;28;20019;-54
2021/03/05 06:22:38;;;;;;;5.03;2.43;;;;;;;;;;5095002;28;20374;-54
2021/03/05 06:25:06;;;;;;;8.27;2.80;;;;;;;;;;5094918;28;20040;-54
2021/03/05 06:27:33;;;;;;;5.07;2.80;;;;;;;;;;5095531;28;20097;-55
2021/03/05 06:30:00;;;;;;;6.50;2.40;;;;;;;;;;5094713;28;20022;-54
2021/03/05 06:32:40;;;;;;;6.60;2.60;;;;;;;;;;5094573;28;20112;-54
2021/03/05 06:35:08;;;;;;;4.87;2.63;;;;;;;;;;5094719;28;20030;-54
2021/03/05 06:37:42;;;;;;;6.70;2.70;;;;;;;;;;5094431;28;20044;-54
2021/03/05 06:40:09;;;;;;;4.87;3.03;;;;;;;;;;5094589;28;20167;-54
2021/03/05 06:42:49;;;;;;;4.90;2.87;;;;;;;;;;5094571;28;20027;-54
2021/03/05 06:45:16;;;;;;;5.97;2.67;;;;;;;;;;5094394;28;20027;-54
2021/03/05 06:48:03;;;;;;;6.37;2.87;;;;;;;;;;5094412;28;20052;-54
2021/03/05 06:50:31;;;;;;;5.43;2.77;;;;;;;;;;5094336;28;20016;-54
2021/03/05 06:52:58;;;;;;;4.57;2.87;;;;;;;;;;5094360;28;20020;-54
2021/03/05 06:55:24;;;;;;;12.03;3.03;;;;;;;;;;5094327;28;20371;-54
2021/03/05 06:57:53;;;;;;;4.17;2.60;;;;;;;;;;5094121;28;20064;-54
2021/03/05 07:00:21;;;;;;;4.17;2.20;;;;;;;;;;5094063;28;20024;-54
2021/03/05 07:02:48;;;;;;;4.77;2.33;;;;;;;;;;5094311;28;20032;-54
2021/03/05 07:05:16;;;;;;;5.87;2.60;;;;;;;;;;5094060;28;20536;-54
2021/03/05 07:07:43;;;;;;;4.40;2.50;;;;;;;;;;5093919;28;20360;-54
2021/03/05 07:10:10;;;;;;;4.33;2.70;;;;;;;;;;5093912;28;20020;-54
2021/03/05 07:12:37;;;;;;;4.63;2.43;;;;;;;;;;5094002;28;20059;-54
2021/03/05 07:15:05;;;;;;;4.73;2.27;;;;;;;;;;5093856;28;20016;-54
2021/03/05 07:17:32;;;;;;;4.53;2.80;;;;;;;;;;5093761;28;20161;-54
2021/03/05 07:19:59;;;;;;;4.67;2.50;;;;;;;;;;5093909;28;20456;-54
2021/03/05 07:22:27;;;;;;;5.33;2.67;;;;;;;;;;5093844;28;20478;-54
2021/03/05 07:24:55;;;;;;;5.53;2.60;;;;;;;;;;5093666;28;20016;-54
2021/03/05 07:27:27;;;;;;;4.67;2.40;;;;;;;;;;5093877;27;20090;-54
2021/03/05 07:29:56;;;;;;;3.77;2.30;;;;;;;;;;5093665;28;20060;-54
2021/03/05 07:32:25;;;;;;;7.27;2.33;;;;;;;;;;5093602;28;20048;-54
2021/03/05 07:34:51;;;;;;;4.57;2.73;;;;;;;;;;5093531;28;20016;-54
2021/03/05 07:37:19;;;;;;;7.50;2.83;;;;;;;;;;5093411;28;20035;-54
2021/03/05 07:39:47;;;;;;;6.00;2.33;;;;;;;;;;5093335;28;20050;-54
2021/03/05 07:42:14;;;;;;;3.30;2.20;;;;;;;;;;5093477;28;20022;-54
2021/03/05 07:44:41;;;;;;;3.83;2.40;;;;;;;;;;5093383;28;20016;-54
2021/03/05 07:47:09;;;;;;;5.80;2.40;;;;;;;;;;5093318;28;20071;-54
2021/03/05 07:49:36;;;;;;;6.47;2.10;;;;;;;;;;5093143;28;20382;-54
2021/03/05 07:52:04;;;;;;;4.57;2.43;;;;;;;;;;5093240;28;20381;-54
2021/03/05 07:54:49;;;;;;;5.60;2.70;;;;;;;;;;5093285;28;20478;-54
2021/03/05 07:57:16;;;;;;;3.90;2.42;;;;;;;;;;5093150;28;20032;-54
2021/03/05 07:59:43;;;;;;;3.17;2.23;;;;;;;;;;5093204;28;20103;-54
2021/03/05 08:02:11;;;;;;;5.00;1.90;;;;;;;;;;5093163;28;20047;-54
2021/03/05 08:04:50;;;;;;;2.70;1.70;;;;;;;;;;5093041;28;20017;-54
2021/03/05 08:07:17;;;;;;;3.20;2.00;;;;;;;;;;5093056;28;20378;-54
2021/03/05 08:09:43;;;;;;;6.00;2.20;;;;;;;;;;5093087;28;20020;-54
2021/03/05 08:12:31;;;;;;;3.90;2.30;;;;;;;;;;5092941;28;20020;-54
2021/03/05 08:15:10;;;;;;;5.07;2.43;;;;;;;;;;5093020;28;20020;-54
2021/03/05 08:17:55;;;;;;;3.87;2.23;;;;;;;;;;5092846;28;20039;-54
2021/03/05 08:20:22;;;;;;;3.55;2.10;;;;;;;;;;5093044;28;20043;-54
2021/03/05 08:22:57;;;;;;;4.50;2.40;;;;;;;;;;5093001;28;20390;-54
2021/03/05 08:25:26;;;;;;;3.20;2.00;;;;;;;;;;5092943;28;20020;-54
2021/03/05 08:27:53;;;;;;;6.20;2.03;;;;;;;;;;5093667;28;20047;-54
2021/03/05 08:30:39;;;;;;;7.27;1.97;;;;;;;;;;5092825;28;20252;-54
2021/03/05 08:33:07;;;;;;;3.40;2.10;;;;;;;;;;5092745;28;20066;-54
2021/03/05 08:35:37;;;;;;;3.17;2.13;;;;;;;;;;5092783;28;20020;-54
2021/03/05 08:38:08;;;;;;;3.03;1.63;;;;;;;;;;5093316;28;20085;-54
2021/03/05 08:40:47;;;;;;;4.83;2.40;;;;;;;;;;5096834;28;20596;-54
2021/03/05 08:43:18;;;;;;;3.03;1.73;;;;;;;;;;5096842;28;20289;-54
2021/03/05 08:45:49;;;;;;;6.03;2.40;;;;;;;;;;5096802;28;20260;-54
2021/03/05 08:48:34;;;;;;;5.33;2.20;;;;;;;;;;5096638;28;20730;-54
2021/03/05 08:51:04;;;;;;;7.50;2.20;;;;;;;;;;5096696;28;20295;-54
2021/03/05 08:53:37;;;;;;;3.60;2.10;;;;;;;;;;5096797;28;20379;-54
2021/03/05 08:56:04;;;;;;;5.10;2.23;;;;;;;;;;5096573;28;20691;-54
2021/03/05 08:58:30;;;;;;;4.03;2.37;;;;;;;;;;5096492;28;20284;-54
2021/03/05 09:00:57;;;;;;;4.00;2.10;;;;;;;;;;5096448;28;20256;-54
2021/03/05 09:03:24;;;;;;;5.80;2.57;;;;;;;;;;5096377;28;20253;-54
2021/03/05 09:05:51;;;;;;;4.97;2.27;;;;;;;;;;5096415;28;20804;-54
2021/03/05 09:08:21;;;;;;;3.33;2.10;;;;;;;;;;5096250;28;20252;-54
2021/03/05 09:10:51;;;;;;;3.80;2.40;;;;;;;;;;5096346;28;20255;-54
2021/03/05 09:13:19;;;;;;;3.13;1.90;;;;;;;;;;5096220;28;20332;-54
2021/03/05 09:15:49;;;;;;;3.07;1.77;;;;;;;;;;5096223;28;20249;-54
2021/03/05 09:18:39;;;;;;;3.50;2.17;;;;;;;;;;5095944;28;20323;-54
2021/03/05 09:21:07;;;;;;;4.90;2.00;;;;;;;;;;5086107;28;20291;-54
2021/03/05 09:23:40;;;;;;;3.67;2.00;;;;;;;;;;5096287;28;20247;-54
2021/03/05 09:26:08;;;;;;;3.67;2.03;;;;;;;;;;5095889;28;20594;-54
2021/03/05 09:28:37;;;;;;;4.30;1.97;;;;;;;;;;5096905;27;20285;-54
2021/03/05 09:31:04;;;;;;;3.30;2.10;;;;;;;;;;5096000;28;20314;-54
2021/03/05 09:33:32;;;;;;;4.13;2.03;;;;;;;;;;5095820;28;20276;-54
2021/03/05 09:36:00;;;;;;;3.80;2.10;;;;;;;;;;5095908;28;20258;-54
2021/03/05 09:38:27;;;;;;;3.53;2.00;;;;;;;;;;5095576;28;20357;-54
2021/03/05 09:40:53;;;;;;;3.60;2.07;;;;;;;;;;5095662;28;20244;-54
2021/03/05 09:43:20;;;;;;;3.33;2.03;;;;;;;;;;5095619;28;20306;-54
2021/03/05 09:45:52;;;;;;;3.27;1.80;;;;;;;;;;5095515;28;20712;-54
2021/03/05 09:48:27;;;;;;;4.07;2.13;;;;;;;;;;5095592;28;20249;-54
2021/03/05 09:51:05;;;;;;;7.23;2.03;;;;;;;;;;5095088;28;20330;-54
2021/03/05 09:53:36;;;;;;;4.00;2.10;;;;;;;;;;5095486;28;20724;-54
2021/03/05 09:56:04;;;;;;;3.73;2.20;;;;;;;;;;5095544;28;20253;-54
2021/03/05 09:58:31;;;;;;;3.33;1.73;;;;;;;;;;5095383;28;20295;-54
2021/03/05 10:00:58;;;;;;;3.10;1.90;;;;;;;;;;5095293;28;20328;-54
2021/03/05 10:03:25;;;;;;;4.83;2.00;;;;;;;;;;5095218;28;20268;-54
2021/03/05 10:05:52;;;;;;;5.77;2.23;;;;;;;;;;5095141;28;20734;-53
2021/03/05 10:08:19;;;;;;;5.37;1.77;;;;;;;;;;5095183;28;20267;-54
2021/03/05 10:10:58;;;;;;;3.53;2.10;;;;;;;;;;5095091;28;20307;-54
2021/03/05 10:13:42;;;;;;;3.47;2.10;;;;;;;;;;5094966;28;20241;-54
2021/03/05 10:16:13;;;;;;;4.88;2.70;;;;;;;;;;5094930;28;20252;-54
2021/03/05 10:18:39;;;;;;;4.83;2.10;;;;;;;;;;5094864;28;20040;-54
2021/03/05 10:21:12;;;;;;;5.87;2.00;;;;;;;;;;5094921;28;20276;-53
2021/03/05 10:23:40;;;;;;;4.20;2.17;;;;;;;;;;5094968;28;20253;-54
2021/03/05 10:26:16;;;;;;;3.37;2.00;;;;;;;;;;5094681;28;20267;-54
2021/03/05 10:28:43;;;;;;;4.60;1.63;;;;;;;;;;5095689;27;20293;-54
2021/03/05 10:31:10;;;;;;;4.23;2.20;;;;;;;;;;5094757;28;20245;-54
2021/03/05 10:33:38;;;;;;;2.90;1.70;;;;;;;;;;5094624;28;20295;-54
2021/03/05 10:36:05;;;;;;;3.63;1.60;;;;;;;;;;5094698;28;20248;-54
2021/03/05 10:38:32;;;;;;;4.93;2.47;;;;;;;;;;5094410;28;20317;-53
2021/03/05 10:40:58;;;;;;;9.77;2.47;;;;;;;;;;5094633;28;20249;-54
2021/03/05 10:43:25;;;;;;;6.57;2.70;;;;;;;;;;5094575;28;20765;-54
2021/03/05 10:45:52;;;;;;;9.23;2.00;;;;;;;;;;5094497;28;20244;-53
2021/03/05 10:48:19;;;;;;;2.13;1.50;;;;;;;;;;5094253;28;20327;-53
2021/03/05 10:50:45;;;;;;;5.10;1.60;;;;;;;;;;5094435;28;20374;-53
2021/03/05 10:53:12;;;;;;;4.30;2.17;;;;;;;;;;5094272;28;20298;-53
2021/03/05 10:55:39;;;;;;;3.33;2.10;;;;;;;;;;5094159;28;20299;-54
2021/03/05 10:58:05;;;;;;;4.10;2.43;;;;;;;;;;5094144;28;20280;-53
2021/03/05 11:00:32;;;;;;;4.60;2.20;;;;;;;;;;5093642;28;20612;-53
2021/03/05 11:02:59;;;;;;;5.37;2.60;;;;;;;;;;5093815;28;20303;-53
2021/03/05 11:05:26;;;;;;;6.07;2.50;;;;;;;;;;5093962;28;20259;-53
2021/03/05 11:07:53;;;;;;;3.53;2.17;;;;;;;;;;5093892;28;20256;-53
2021/03/05 11:10:26;;;;;;;4.10;2.10;;;;;;;;;;5093838;28;20812;-54
2021/03/05 11:12:53;;;;;;;4.37;2.27;;;;;;;;;;5093913;28;20283;-53
2021/03/05 11:15:20;;;;;;;4.13;2.40;;;;;;;;;;5093773;28;20245;-53
2021/03/05 11:17:47;;;;;;;5.57;2.80;;;;;;;;;;5093757;28;20571;-54
2021/03/05 11:20:14;;;;;;;5.13;2.37;;;;;;;;;;5093879;28;20302;-53
2021/03/05 11:22:40;;;;;;;6.83;2.50;;;;;;;;;;5093719;28;20658;-54
2021/03/05 11:25:07;;;;;;;3.87;2.03;;;;;;;;;;5093663;28;20256;-54
2021/03/05 11:27:35;;;;;;;4.73;2.20;;;;;;;;;;5093472;28;20335;-53
2021/03/05 11:30:05;;;;;;;4.63;2.83;;;;;;;;;;5094123;28;20787;-53
2021/03/05 11:32:33;;;;;;;6.87;2.83;;;;;;;;;;5093855;28;20339;-53
2021/03/05 11:35:00;;;;;;;5.43;2.87;;;;;;;;;;5093540;28;20588;-53
2021/03/05 11:37:28;;;;;;;5.43;2.83;;;;;;;;;;5093318;28;20284;-53
2021/03/05 11:39:55;;;;;;;5.13;2.50;;;;;;;;;;5093568;28;20252;-53
2021/03/05 11:42:22;;;;;;;9.03;2.47;;;;;;;;;;5093529;28;20260;-53
2021/03/05 11:44:48;;;;;;;5.87;2.80;;;;;;;;;;5093358;28;20249;-53
2021/03/05 11:47:16;;;;;;;5.63;3.07;;;;;;;;;;5093316;28;20519;-53
2021/03/05 11:49:42;;;;;;;5.30;3.87;;;;;;;;;;5093348;28;20276;-53
2021/03/05 11:52:09;;;;;;;10.37;2.67;;;;;;;;;;5093285;28;20340;-53
2021/03/05 11:54:36;;;;;;;3.53;2.03;;;;;;;;;;5093211;28;20253;-53
2021/03/05 11:57:02;;;;;;;5.63;2.53;;;;;;;;;;5093158;28;20288;-53
2021/03/05 11:59:30;;;;;;;9.40;2.77;;;;;;;;;;5093212;28;20547;-53
2021/03/05 12:01:57;;;;;;;4.93;2.10;;;;;;;;;;5093172;28;20253;-53
2021/03/05 12:04:24;;;;;;;5.30;2.30;;;;;;;;;;5093040;28;20742;-53
2021/03/05 12:06:51;;;;;;;3.87;2.23;;;;;;;;;;5093101;28;20256;-53
2021/03/05 12:09:18;;;;;;;4.30;2.23;;;;;;;;;;5092985;28;20282;-53
2021/03/05 12:11:44;;;;;;;5.63;2.43;;;;;;;;;;5092978;28;20245;-53
2021/03/05 12:14:11;;;;;;;4.03;2.00;;;;;;;;;;5092939;28;20260;-53
2021/03/05 12:16:38;;;;;;;8.03;2.27;;;;;;;;;;5092771;28;20276;-53
2021/03/05 12:19:05;;;;;;;2.83;2.00;;;;;;;;;;5092772;28;20280;-53
2021/03/05 12:21:32;;;;;;;3.70;2.30;;;;;;;;;;5092787;28;20263;-53
2021/03/05 12:23:59;;;;;;;16.93;2.37;;;;;;;;;;5092911;28;20252;-53
2021/03/05 12:26:26;;;;;;;6.80;2.77;;;;;;;;;;5092659;28;20280;-53
2021/03/05 12:28:53;;;;;;;5.77;2.87;;;;;;;;;;5093758;28;20293;-53
2021/03/05 12:31:20;;;;;;;10.00;3.10;;;;;;;;;;5092745;28;20257;-53
2021/03/05 12:33:46;;;;;;;4.60;2.60;;;;;;;;;;5092789;28;20244;-53
2021/03/05 12:36:13;;;;;;;3.60;2.10;;;;;;;;;;5092764;28;20314;-54
2021/03/05 12:38:41;;;;;;;3.93;2.27;;;;;;;;;;5092799;28;20288;-53
2021/03/05 12:41:08;;;;;;;4.97;2.43;;;;;;;;;;5092658;28;20249;-53
2021/03/05 12:43:35;;;;;;;9.13;2.90;;;;;;;;;;5092625;28;20284;-53
2021/03/05 12:46:02;;;;;;;3.97;2.40;;;;;;;;;;5092611;28;20770;-53
2021/03/05 12:48:29;;;;;;;6.07;2.93;;;;;;;;;;5092624;28;20245;-53
2021/03/05 12:50:56;;;;;;;5.47;2.60;;;;;;;;;;5092580;28;20264;-53
2021/03/05 12:53:22;;;;;;;9.60;2.23;;;;;;;;;;5092712;28;20358;-53
2021/03/05 12:55:49;;;;;;;10.43;2.53;;;;;;;;;;5092479;28;20253;-53
2021/03/05 12:58:16;;;;;;;4.50;2.63;;;;;;;;;;5092490;28;20316;-53
2021/03/05 13:00:43;;;;;;;5.57;2.87;;;;;;;;;;5092572;28;20260;-53
2021/03/05 13:03:10;;;;;;;8.57;2.90;;;;;;;;;;5092573;28;20264;-54
2021/03/05 13:05:36;;;;;;;7.77;3.20;;;;;;;;;;5092600;28;20303;-53
2021/03/05 13:08:03;;;;;;;8.43;2.63;;;;;;;;;;5092504;28;20264;-53
2021/03/05 13:10:30;;;;;;;7.37;3.40;;;;;;;;;;5092347;28;20339;-53
2021/03/05 13:12:57;;;;;;;5.87;3.57;;;;;;;;;;5092680;28;20259;-53
2021/03/05 13:15:24;;;;;;;6.07;3.30;;;;;;;;;;5092318;28;20257;-54
2021/03/05 13:17:50;;;;;;;9.77;3.50;;;;;;;;;;5092357;28;20324;-53
2021/03/05 13:20:17;;;;;;;15.93;3.47;;;;;;;;;;5092457;28;20249;-53
2021/03/05 13:22:44;;;;;;;31.47;3.87;;;;;;;;;;5092411;28;20302;-53
2021/03/05 13:25:13;;;;;;;32.17;3.67;;;;;;;;;;5094552;28;20296;-53
2021/03/05 13:27:40;;;;;;;13.13;3.87;;;;;;;;;;5095835;28;20653;-54
2021/03/05 13:30:07;;;;;;;13.00;3.93;;;;;;;;;;5096029;27;20300;-54
2021/03/05 13:32:34;;;;;;;10.57;4.13;;;;;;;;;;5095813;28;20279;-54
2021/03/05 13:35:01;;;;;;;17.27;3.73;;;;;;;;;;5095769;28;20264;-53
2021/03/05 13:37:28;;;;;;;19.27;3.70;;;;;;;;;;5095617;28;20292;-54
2021/03/05 13:39:54;;;;;;;12.30;4.17;;;;;;;;;;5095758;28;20260;-54
2021/03/05 13:42:21;;;;;;;14.27;4.87;;;;;;;;;;5095803;28;20328;-54
2021/03/05 13:44:48;;;;;;;8.97;3.73;;;;;;;;;;5095589;28;20709;-54
2021/03/05 13:47:15;;;;;;;9.07;3.87;;;;;;;;;;5095666;28;20727;-54
2021/03/05 13:49:42;;;;;;;10.27;4.00;;;;;;;;;;5095594;28;20284;-54
2021/03/05 13:52:08;;;;;;;10.97;3.77;;;;;;;;;;5095484;28;20298;-54
2021/03/05 13:54:35;;;;;;;9.03;4.53;;;;;;;;;;5095418;28;20277;-54
2021/03/05 13:57:02;;;;;;;11.03;3.80;;;;;;;;;;5095394;28;20281;-54
2021/03/05 13:59:29;;;;;;;7.37;3.37;;;;;;;;;;5095452;28;20260;-54
2021/03/05 14:01:56;;;;;;;6.90;2.80;;;;;;;;;;5095230;28;20646;-54
2021/03/05 14:04:22;;;;;;;3.73;2.23;;;;;;;;;;5095271;28;20603;-55
2021/03/05 14:06:49;;;;;;;12.27;2.97;;;;;;;;;;5095265;28;20257;-54
2021/03/05 14:09:16;;;;;;;7.00;2.57;;;;;;;;;;5095306;28;20378;-54
2021/03/05 14:11:43;;;;;;;4.80;2.53;;;;;;;;;;5095171;28;20012;-54
2021/03/05 14:14:10;;;;;;;9.13;2.73;;;;;;;;;;5095147;28;20024;-54
2021/03/05 14:16:36;;;;;;;5.20;3.03;;;;;;;;;;5094982;28;20020;-54
2021/03/05 14:19:04;;;;;;;6.77;3.90;;;;;;;;;;5095085;28;20067;-55
2021/03/05 14:21:31;;;;;;;11.90;3.67;;;;;;;;;;5094999;28;20016;-55
2021/03/05 14:23:58;;;;;;;9.50;3.70;;;;;;;;;;5094966;28;20050;-55
2021/03/05 14:26:27;;;;;;;8.17;3.43;;;;;;;;;;5094668;28;20031;-55
2021/03/05 14:28:53;;;;;;;6.10;3.57;;;;;;;;;;5095198;28;20052;-55
2021/03/05 14:31:20;;;;;;;10.17;4.47;;;;;;;;;;5094746;28;20028;-55
2021/03/05 14:33:47;;;;;;;7.83;3.80;;;;;;;;;;5094750;28;20482;-55
2021/03/05 14:36:14;;;;;;;22.90;4.90;;;;;;;;;;5094664;28;20475;-55
2021/03/05 14:38:40;;;;;;;10.83;4.23;;;;;;;;;;5094461;28;20495;-55
2021/03/05 14:41:07;;;;;;;7.83;4.30;;;;;;;;;;5094639;28;20031;-55
2021/03/05 14:43:34;;;;;;;8.53;4.20;;;;;;;;;;5094499;28;20035;-55
2021/03/05 14:46:01;;;;;;;7.07;4.57;;;;;;;;;;5094486;28;20103;-55
2021/03/05 14:48:28;;;;;;;7.00;3.43;;;;;;;;;;5094426;28;20099;-55
2021/03/05 14:50:54;;;;;;;7.30;3.40;;;;;;;;;;5094629;28;20115;-55
2021/03/05 14:53:21;;;;;;;9.40;4.13;;;;;;;;;;5094418;28;20020;-55
2021/03/05 14:55:49;;;;;;;13.03;4.50;;;;;;;;;;5094344;28;20024;-55
2021/03/05 14:58:16;;;;;;;10.47;4.73;;;;;;;;;;5094002;28;20119;-55